sensor_id;sensor_type;location;lat;lon;timestamp;P1;durP1;ratioP1;P2;durP2;ratioP2
2912;SDS011;1466;48.778;9.166;2024-01-07T00:01:15;37.07;;;14.70;;
2912;SDS011;1466;48.778;9.166;2024-01-07T00:03:41;33.50;;;13.60;;
2912;SDS011;1466;48.778;9.166;2024-01-07T00:06:07;31.25;;;14.10;;
2912;SDS011;1466;48.778;9.166;2024-01-07T00:08:33;28.70;;;13.93;;
2912;SDS011;1466;48.778;9.166;2024-01-07T00:10:59;32.28;;;14.23;;
2912;SDS011;1466;48.778;9.166;2024-01-07T00:13:25;34.47;;;14.30;;
2912;SDS011;1466;48.778;9.166;2024-01-07T00:15:51;38.03;;;13.80;;
2912;SDS011;1466;48.778;9.166;2024-01-07T00:18:18;34.20;;;13.85;;
2912;SDS011;1466;48.778;9.166;2024-01-07T00:20:44;35.17;;;14.00;;
2912;SDS011;1466;48.778;9.166;2024-01-07T00:23:10;37.87;;;13.97;;
2912;SDS011;1466;48.778;9.166;2024-01-07T00:25:35;29.47;;;13.00;;
2912;SDS011;1466;48.778;9.166;2024-01-07T00:28:01;42.07;;;15.13;;
2912;SDS011;1466;48.778;9.166;2024-01-07T00:30:27;33.83;;;13.40;;
2912;SDS011;1466;48.778;9.166;2024-01-07T00:32:52;30.97;;;13.73;;
2912;SDS011;1466;48.778;9.166;2024-01-07T00:35:18;29.87;;;11.33;;
2912;SDS011;1466;48.778;9.166;2024-01-07T00:37:43;33.60;;;14.30;;
2912;SDS011;1466;48.778;9.166;2024-01-07T00:40:09;29.53;;;12.97;;
2912;SDS011;1466;48.778;9.166;2024-01-07T00:42:35;29.55;;;13.70;;
2912;SDS011;1466;48.778;9.166;2024-01-07T00:45:01;53.07;;;15.23;;
2912;SDS011;1466;48.778;9.166;2024-01-07T00:47:26;28.93;;;13.17;;
2912;SDS011;1466;48.778;9.166;2024-01-07T00:49:52;35.63;;;13.43;;
2912;SDS011;1466;48.778;9.166;2024-01-07T00:52:18;29.37;;;14.10;;
2912;SDS011;1466;48.778;9.166;2024-01-07T00:54:43;33.93;;;13.13;;
2912;SDS011;1466;48.778;9.166;2024-01-07T00:57:10;31.17;;;15.30;;
2912;SDS011;1466;48.778;9.166;2024-01-07T00:59:37;39.58;;;14.40;;
2912;SDS011;1466;48.778;9.166;2024-01-07T01:02:03;33.53;;;13.60;;
2912;SDS011;1466;48.778;9.166;2024-01-07T01:04:28;28.07;;;13.30;;
2912;SDS011;1466;48.778;9.166;2024-01-07T01:06:54;30.63;;;12.20;;
2912;SDS011;1466;48.778;9.166;2024-01-07T01:09:20;32.73;;;14.60;;
2912;SDS011;1466;48.778;9.166;2024-01-07T01:11:45;45.70;;;15.90;;
2912;SDS011;1466;48.778;9.166;2024-01-07T01:14:11;29.80;;;12.60;;
2912;SDS011;1466;48.778;9.166;2024-01-07T01:16:36;37.07;;;15.13;;
2912;SDS011;1466;48.778;9.166;2024-01-07T01:19:02;36.37;;;15.30;;
2912;SDS011;1466;48.778;9.166;2024-01-07T01:21:27;32.07;;;13.17;;
2912;SDS011;1466;48.778;9.166;2024-01-07T01:23:54;38.73;;;15.30;;
2912;SDS011;1466;48.778;9.166;2024-01-07T01:26:19;35.55;;;14.93;;
2912;SDS011;1466;48.778;9.166;2024-01-07T01:28:45;38.63;;;14.97;;
2912;SDS011;1466;48.778;9.166;2024-01-07T01:31:14;36.43;;;14.90;;
2912;SDS011;1466;48.778;9.166;2024-01-07T01:33:40;43.60;;;16.23;;
2912;SDS011;1466;48.778;9.166;2024-01-07T01:36:06;42.10;;;18.87;;
2912;SDS011;1466;48.778;9.166;2024-01-07T01:38:32;44.30;;;17.70;;
2912;SDS011;1466;48.778;9.166;2024-01-07T01:40:57;51.87;;;20.73;;
2912;SDS011;1466;48.778;9.166;2024-01-07T01:43:24;33.13;;;13.77;;
2912;SDS011;1466;48.778;9.166;2024-01-07T01:45:50;52.40;;;19.33;;
2912;SDS011;1466;48.778;9.166;2024-01-07T01:48:16;48.53;;;16.98;;
2912;SDS011;1466;48.778;9.166;2024-01-07T01:50:42;53.57;;;18.10;;
2912;SDS011;1466;48.778;9.166;2024-01-07T01:53:08;47.37;;;17.77;;
2912;SDS011;1466;48.778;9.166;2024-01-07T01:55:33;41.00;;;14.63;;
2912;SDS011;1466;48.778;9.166;2024-01-07T01:57:59;47.77;;;17.50;;
2912;SDS011;1466;48.778;9.166;2024-01-07T02:00:29;49.35;;;17.83;;
2912;SDS011;1466;48.778;9.166;2024-01-07T02:02:55;51.42;;;19.83;;
2912;SDS011;1466;48.778;9.166;2024-01-07T02:05:20;46.37;;;17.13;;
2912;SDS011;1466;48.778;9.166;2024-01-07T02:07:46;50.03;;;18.83;;
2912;SDS011;1466;48.778;9.166;2024-01-07T02:10:12;38.75;;;14.85;;
2912;SDS011;1466;48.778;9.166;2024-01-07T02:12:38;48.17;;;17.13;;
2912;SDS011;1466;48.778;9.166;2024-01-07T02:15:04;54.33;;;18.37;;
2912;SDS011;1466;48.778;9.166;2024-01-07T02:17:30;45.08;;;20.20;;
2912;SDS011;1466;48.778;9.166;2024-01-07T02:19:56;52.90;;;17.80;;
2912;SDS011;1466;48.778;9.166;2024-01-07T02:22:21;40.13;;;15.97;;
2912;SDS011;1466;48.778;9.166;2024-01-07T02:24:47;38.90;;;17.10;;
2912;SDS011;1466;48.778;9.166;2024-01-07T02:27:13;42.10;;;16.87;;
2912;SDS011;1466;48.778;9.166;2024-01-07T02:29:38;49.10;;;18.60;;
2912;SDS011;1466;48.778;9.166;2024-01-07T02:32:04;50.83;;;19.50;;
2912;SDS011;1466;48.778;9.166;2024-01-07T02:34:30;56.60;;;16.52;;
2912;SDS011;1466;48.778;9.166;2024-01-07T02:36:55;46.37;;;18.27;;
2912;SDS011;1466;48.778;9.166;2024-01-07T02:39:21;47.63;;;18.07;;
2912;SDS011;1466;48.778;9.166;2024-01-07T02:41:47;39.33;;;17.77;;
2912;SDS011;1466;48.778;9.166;2024-01-07T02:44:14;49.13;;;18.90;;
2912;SDS011;1466;48.778;9.166;2024-01-07T02:46:39;57.53;;;19.93;;
2912;SDS011;1466;48.778;9.166;2024-01-07T02:49:05;46.30;;;19.17;;
2912;SDS011;1466;48.778;9.166;2024-01-07T02:51:30;50.57;;;19.73;;
2912;SDS011;1466;48.778;9.166;2024-01-07T02:53:56;48.30;;;20.20;;
2912;SDS011;1466;48.778;9.166;2024-01-07T02:56:21;62.30;;;21.10;;
2912;SDS011;1466;48.778;9.166;2024-01-07T02:58:47;52.07;;;17.50;;
2912;SDS011;1466;48.778;9.166;2024-01-07T03:01:12;38.93;;;17.07;;
2912;SDS011;1466;48.778;9.166;2024-01-07T03:03:38;45.97;;;18.20;;
2912;SDS011;1466;48.778;9.166;2024-01-07T03:06:04;44.03;;;18.47;;
2912;SDS011;1466;48.778;9.166;2024-01-07T03:08:30;44.27;;;18.03;;
2912;SDS011;1466;48.778;9.166;2024-01-07T03:10:56;45.97;;;19.63;;
2912;SDS011;1466;48.778;9.166;2024-01-07T03:13:21;44.57;;;16.40;;
2912;SDS011;1466;48.778;9.166;2024-01-07T03:15:47;33.80;;;14.83;;
2912;SDS011;1466;48.778;9.166;2024-01-07T03:18:12;33.60;;;15.67;;
2912;SDS011;1466;48.778;9.166;2024-01-07T03:20:38;38.23;;;16.53;;
2912;SDS011;1466;48.778;9.166;2024-01-07T03:23:04;51.50;;;17.97;;
2912;SDS011;1466;48.778;9.166;2024-01-07T03:25:29;40.80;;;16.30;;
2912;SDS011;1466;48.778;9.166;2024-01-07T03:27:55;37.67;;;15.80;;
2912;SDS011;1466;48.778;9.166;2024-01-07T03:30:21;45.57;;;17.10;;
2912;SDS011;1466;48.778;9.166;2024-01-07T03:32:46;35.67;;;15.10;;
2912;SDS011;1466;48.778;9.166;2024-01-07T03:35:12;46.20;;;17.77;;
2912;SDS011;1466;48.778;9.166;2024-01-07T03:37:38;44.20;;;16.83;;
2912;SDS011;1466;48.778;9.166;2024-01-07T03:40:03;39.30;;;15.40;;
2912;SDS011;1466;48.778;9.166;2024-01-07T03:42:34;42.97;;;15.63;;
2912;SDS011;1466;48.778;9.166;2024-01-07T03:44:59;33.80;;;15.90;;
2912;SDS011;1466;48.778;9.166;2024-01-07T03:47:25;39.93;;;15.60;;
2912;SDS011;1466;48.778;9.166;2024-01-07T03:49:50;33.07;;;14.70;;
2912;SDS011;1466;48.778;9.166;2024-01-07T03:52:16;41.13;;;17.33;;
2912;SDS011;1466;48.778;9.166;2024-01-07T03:54:42;35.07;;;15.97;;
2912;SDS011;1466;48.778;9.166;2024-01-07T03:57:07;37.63;;;15.17;;
2912;SDS011;1466;48.778;9.166;2024-01-07T03:59:33;41.63;;;16.57;;
2912;SDS011;1466;48.778;9.166;2024-01-07T04:01:58;39.57;;;15.50;;
2912;SDS011;1466;48.778;9.166;2024-01-07T04:04:24;36.70;;;14.60;;
2912;SDS011;1466;48.778;9.166;2024-01-07T04:06:50;33.47;;;14.47;;
2912;SDS011;1466;48.778;9.166;2024-01-07T04:09:15;38.80;;;16.10;;
2912;SDS011;1466;48.778;9.166;2024-01-07T04:11:41;33.60;;;15.40;;
2912;SDS011;1466;48.778;9.166;2024-01-07T04:14:07;42.72;;;17.27;;
2912;SDS011;1466;48.778;9.166;2024-01-07T04:16:34;38.72;;;16.40;;
2912;SDS011;1466;48.778;9.166;2024-01-07T04:19:00;46.22;;;17.58;;
2912;SDS011;1466;48.778;9.166;2024-01-07T04:21:25;33.93;;;13.97;;
2912;SDS011;1466;48.778;9.166;2024-01-07T04:23:51;30.80;;;12.20;;
2912;SDS011;1466;48.778;9.166;2024-01-07T04:26:16;38.40;;;15.47;;
2912;SDS011;1466;48.778;9.166;2024-01-07T04:28:42;41.43;;;14.90;;
2912;SDS011;1466;48.778;9.166;2024-01-07T04:31:08;54.90;;;18.85;;
2912;SDS011;1466;48.778;9.166;2024-01-07T04:33:34;40.37;;;16.77;;
2912;SDS011;1466;48.778;9.166;2024-01-07T04:36:00;30.33;;;13.97;;
2912;SDS011;1466;48.778;9.166;2024-01-07T04:38:26;36.30;;;16.10;;
2912;SDS011;1466;48.778;9.166;2024-01-07T04:40:52;27.13;;;12.63;;
2912;SDS011;1466;48.778;9.166;2024-01-07T04:43:18;30.50;;;11.97;;
2912;SDS011;1466;48.778;9.166;2024-01-07T04:45:44;42.95;;;16.70;;
2912;SDS011;1466;48.778;9.166;2024-01-07T04:48:10;35.97;;;15.47;;
2912;SDS011;1466;48.778;9.166;2024-01-07T04:50:36;36.30;;;14.50;;
2912;SDS011;1466;48.778;9.166;2024-01-07T04:53:01;39.17;;;15.80;;
2912;SDS011;1466;48.778;9.166;2024-01-07T04:55:27;45.03;;;15.80;;
2912;SDS011;1466;48.778;9.166;2024-01-07T04:57:54;36.20;;;14.02;;
2912;SDS011;1466;48.778;9.166;2024-01-07T05:00:20;29.23;;;13.03;;
2912;SDS011;1466;48.778;9.166;2024-01-07T05:02:46;29.43;;;12.23;;
2912;SDS011;1466;48.778;9.166;2024-01-07T05:05:11;34.40;;;16.37;;
2912;SDS011;1466;48.778;9.166;2024-01-07T05:07:37;41.30;;;16.23;;
2912;SDS011;1466;48.778;9.166;2024-01-07T05:10:03;35.27;;;13.43;;
2912;SDS011;1466;48.778;9.166;2024-01-07T05:12:29;42.50;;;15.45;;
2912;SDS011;1466;48.778;9.166;2024-01-07T05:14:55;32.57;;;14.17;;
2912;SDS011;1466;48.778;9.166;2024-01-07T05:17:20;32.80;;;13.47;;
2912;SDS011;1466;48.778;9.166;2024-01-07T05:19:46;54.10;;;19.30;;
2912;SDS011;1466;48.778;9.166;2024-01-07T05:22:11;34.57;;;13.90;;
2912;SDS011;1466;48.778;9.166;2024-01-07T05:24:37;33.23;;;12.67;;
2912;SDS011;1466;48.778;9.166;2024-01-07T05:27:06;37.60;;;13.40;;
2912;SDS011;1466;48.778;9.166;2024-01-07T05:29:32;36.87;;;14.03;;
2912;SDS011;1466;48.778;9.166;2024-01-07T05:32:00;30.40;;;13.52;;
2912;SDS011;1466;48.778;9.166;2024-01-07T05:34:27;33.15;;;13.98;;
2912;SDS011;1466;48.778;9.166;2024-01-07T05:36:53;38.67;;;13.37;;
2912;SDS011;1466;48.778;9.166;2024-01-07T05:39:19;29.87;;;12.70;;
2912;SDS011;1466;48.778;9.166;2024-01-07T05:41:44;29.43;;;13.67;;
2912;SDS011;1466;48.778;9.166;2024-01-07T05:44:11;34.30;;;11.70;;
2912;SDS011;1466;48.778;9.166;2024-01-07T05:46:40;30.33;;;11.93;;
2912;SDS011;1466;48.778;9.166;2024-01-07T05:49:06;31.23;;;12.02;;
2912;SDS011;1466;48.778;9.166;2024-01-07T05:51:33;26.85;;;10.82;;
2912;SDS011;1466;48.778;9.166;2024-01-07T05:53:59;34.43;;;13.80;;
2912;SDS011;1466;48.778;9.166;2024-01-07T05:56:24;30.80;;;12.20;;
2912;SDS011;1466;48.778;9.166;2024-01-07T05:58:50;35.28;;;12.55;;
2912;SDS011;1466;48.778;9.166;2024-01-07T06:01:19;30.17;;;9.57;;
2912;SDS011;1466;48.778;9.166;2024-01-07T06:03:46;23.30;;;11.63;;
2912;SDS011;1466;48.778;9.166;2024-01-07T06:06:13;38.65;;;14.10;;
2912;SDS011;1466;48.778;9.166;2024-01-07T06:08:39;28.80;;;11.32;;
2912;SDS011;1466;48.778;9.166;2024-01-07T06:11:09;32.85;;;13.60;;
2912;SDS011;1466;48.778;9.166;2024-01-07T06:13:37;32.45;;;12.25;;
2912;SDS011;1466;48.778;9.166;2024-01-07T06:16:02;26.73;;;13.33;;
2912;SDS011;1466;48.778;9.166;2024-01-07T06:18:28;37.10;;;13.00;;
2912;SDS011;1466;48.778;9.166;2024-01-07T06:20:54;25.47;;;12.17;;
2912;SDS011;1466;48.778;9.166;2024-01-07T06:23:19;37.13;;;14.53;;
2912;SDS011;1466;48.778;9.166;2024-01-07T06:25:45;24.33;;;12.50;;
2912;SDS011;1466;48.778;9.166;2024-01-07T06:28:10;33.93;;;13.13;;
2912;SDS011;1466;48.778;9.166;2024-01-07T06:30:36;33.03;;;13.07;;
2912;SDS011;1466;48.778;9.166;2024-01-07T06:33:01;31.00;;;13.83;;
2912;SDS011;1466;48.778;9.166;2024-01-07T06:35:27;31.80;;;13.53;;
2912;SDS011;1466;48.778;9.166;2024-01-07T06:37:53;36.72;;;13.30;;
2912;SDS011;1466;48.778;9.166;2024-01-07T06:40:19;38.10;;;14.90;;
2912;SDS011;1466;48.778;9.166;2024-01-07T06:42:45;27.83;;;13.10;;
2912;SDS011;1466;48.778;9.166;2024-01-07T06:45:12;50.28;;;14.57;;
2912;SDS011;1466;48.778;9.166;2024-01-07T06:47:39;42.63;;;13.60;;
2912;SDS011;1466;48.778;9.166;2024-01-07T06:50:05;28.87;;;12.17;;
2912;SDS011;1466;48.778;9.166;2024-01-07T06:52:31;32.65;;;14.27;;
2912;SDS011;1466;48.778;9.166;2024-01-07T06:54:57;31.20;;;13.33;;
2912;SDS011;1466;48.778;9.166;2024-01-07T06:57:22;37.30;;;13.73;;
2912;SDS011;1466;48.778;9.166;2024-01-07T06:59:48;24.43;;;11.67;;
2912;SDS011;1466;48.778;9.166;2024-01-07T07:02:13;24.07;;;11.77;;
2912;SDS011;1466;48.778;9.166;2024-01-07T07:04:39;28.30;;;11.40;;
2912;SDS011;1466;48.778;9.166;2024-01-07T07:07:05;31.93;;;12.00;;
2912;SDS011;1466;48.778;9.166;2024-01-07T07:09:30;27.00;;;12.27;;
2912;SDS011;1466;48.778;9.166;2024-01-07T07:11:56;26.67;;;13.40;;
2912;SDS011;1466;48.778;9.166;2024-01-07T07:14:21;33.30;;;15.23;;
2912;SDS011;1466;48.778;9.166;2024-01-07T07:16:47;26.77;;;11.97;;
2912;SDS011;1466;48.778;9.166;2024-01-07T07:19:12;35.50;;;13.60;;
2912;SDS011;1466;48.778;9.166;2024-01-07T07:21:40;24.73;;;11.48;;
2912;SDS011;1466;48.778;9.166;2024-01-07T07:24:06;24.93;;;11.10;;
2912;SDS011;1466;48.778;9.166;2024-01-07T07:26:31;29.73;;;13.23;;
2912;SDS011;1466;48.778;9.166;2024-01-07T07:28:58;26.40;;;11.05;;
2912;SDS011;1466;48.778;9.166;2024-01-07T07:31:25;33.15;;;11.65;;
2912;SDS011;1466;48.778;9.166;2024-01-07T07:33:50;21.50;;;9.80;;
2912;SDS011;1466;48.778;9.166;2024-01-07T07:36:17;31.73;;;12.82;;
2912;SDS011;1466;48.778;9.166;2024-01-07T07:38:42;26.03;;;10.60;;
2912;SDS011;1466;48.778;9.166;2024-01-07T07:41:08;26.57;;;10.57;;
2912;SDS011;1466;48.778;9.166;2024-01-07T07:43:33;24.80;;;9.73;;
2912;SDS011;1466;48.778;9.166;2024-01-07T07:45:59;29.37;;;12.40;;
2912;SDS011;1466;48.778;9.166;2024-01-07T07:48:27;27.23;;;10.90;;
2912;SDS011;1466;48.778;9.166;2024-01-07T07:50:53;16.23;;;7.17;;
2912;SDS011;1466;48.778;9.166;2024-01-07T07:53:18;28.73;;;11.30;;
2912;SDS011;1466;48.778;9.166;2024-01-07T07:55:44;20.73;;;10.50;;
2912;SDS011;1466;48.778;9.166;2024-01-07T07:58:10;35.90;;;14.23;;
2912;SDS011;1466;48.778;9.166;2024-01-07T08:00:35;31.17;;;10.33;;
2912;SDS011;1466;48.778;9.166;2024-01-07T08:03:01;36.20;;;11.80;;
2912;SDS011;1466;48.778;9.166;2024-01-07T08:05:28;30.63;;;11.38;;
2912;SDS011;1466;48.778;9.166;2024-01-07T08:07:53;29.70;;;11.17;;
2912;SDS011;1466;48.778;9.166;2024-01-07T08:10:20;33.38;;;12.77;;
2912;SDS011;1466;48.778;9.166;2024-01-07T08:12:47;32.55;;;11.45;;
2912;SDS011;1466;48.778;9.166;2024-01-07T08:15:14;30.88;;;10.90;;
2912;SDS011;1466;48.778;9.166;2024-01-07T08:17:39;25.27;;;11.10;;
2912;SDS011;1466;48.778;9.166;2024-01-07T08:20:05;28.13;;;11.70;;
2912;SDS011;1466;48.778;9.166;2024-01-07T08:22:31;36.75;;;11.85;;
2912;SDS011;1466;48.778;9.166;2024-01-07T08:24:57;25.93;;;10.20;;
2912;SDS011;1466;48.778;9.166;2024-01-07T08:27:23;25.00;;;9.70;;
2912;SDS011;1466;48.778;9.166;2024-01-07T08:29:48;24.53;;;8.67;;
2912;SDS011;1466;48.778;9.166;2024-01-07T08:32:14;19.93;;;8.33;;
2912;SDS011;1466;48.778;9.166;2024-01-07T08:34:39;19.10;;;8.20;;
2912;SDS011;1466;48.778;9.166;2024-01-07T08:37:06;20.37;;;8.27;;
2912;SDS011;1466;48.778;9.166;2024-01-07T08:39:33;22.60;;;10.23;;
2912;SDS011;1466;48.778;9.166;2024-01-07T08:41:58;23.67;;;9.00;;
2912;SDS011;1466;48.778;9.166;2024-01-07T08:44:24;20.00;;;7.23;;
2912;SDS011;1466;48.778;9.166;2024-01-07T08:46:50;21.40;;;8.90;;
2912;SDS011;1466;48.778;9.166;2024-01-07T08:49:15;26.63;;;9.40;;
2912;SDS011;1466;48.778;9.166;2024-01-07T08:51:41;26.83;;;9.30;;
2912;SDS011;1466;48.778;9.166;2024-01-07T08:54:07;23.00;;;8.07;;
2912;SDS011;1466;48.778;9.166;2024-01-07T08:56:33;21.67;;;9.30;;
2912;SDS011;1466;48.778;9.166;2024-01-07T08:58:58;32.67;;;10.53;;
2912;SDS011;1466;48.778;9.166;2024-01-07T09:01:24;24.73;;;8.70;;
2912;SDS011;1466;48.778;9.166;2024-01-07T09:03:50;33.10;;;9.97;;
2912;SDS011;1466;48.778;9.166;2024-01-07T09:06:15;20.50;;;8.97;;
2912;SDS011;1466;48.778;9.166;2024-01-07T09:08:41;28.53;;;9.80;;
2912;SDS011;1466;48.778;9.166;2024-01-07T09:11:07;29.33;;;9.10;;
2912;SDS011;1466;48.778;9.166;2024-01-07T09:13:36;16.38;;;6.22;;
2912;SDS011;1466;48.778;9.166;2024-01-07T09:16:02;20.40;;;7.70;;
2912;SDS011;1466;48.778;9.166;2024-01-07T09:18:28;19.47;;;7.40;;
2912;SDS011;1466;48.778;9.166;2024-01-07T09:20:54;25.23;;;8.33;;
2912;SDS011;1466;48.778;9.166;2024-01-07T09:23:19;24.10;;;7.87;;
2912;SDS011;1466;48.778;9.166;2024-01-07T09:25:45;18.20;;;6.63;;
2912;SDS011;1466;48.778;9.166;2024-01-07T09:28:11;21.45;;;6.95;;
2912;SDS011;1466;48.778;9.166;2024-01-07T09:30:38;18.85;;;6.53;;
2912;SDS011;1466;48.778;9.166;2024-01-07T09:33:04;21.00;;;7.13;;
2912;SDS011;1466;48.778;9.166;2024-01-07T09:35:30;12.93;;;4.25;;
2912;SDS011;1466;48.778;9.166;2024-01-07T09:37:56;19.63;;;6.10;;
2912;SDS011;1466;48.778;9.166;2024-01-07T09:40:21;20.33;;;6.93;;
2912;SDS011;1466;48.778;9.166;2024-01-07T09:42:47;21.90;;;7.70;;
2912;SDS011;1466;48.778;9.166;2024-01-07T09:45:13;22.47;;;7.60;;
2912;SDS011;1466;48.778;9.166;2024-01-07T09:47:39;20.52;;;6.85;;
2912;SDS011;1466;48.778;9.166;2024-01-07T09:50:06;22.25;;;6.93;;
2912;SDS011;1466;48.778;9.166;2024-01-07T09:52:34;22.95;;;7.35;;
2912;SDS011;1466;48.778;9.166;2024-01-07T09:55:02;21.17;;;7.43;;
2912;SDS011;1466;48.778;9.166;2024-01-07T09:57:28;22.02;;;7.72;;
2912;SDS011;1466;48.778;9.166;2024-01-07T09:59:54;20.33;;;7.30;;
2912;SDS011;1466;48.778;9.166;2024-01-07T10:02:20;22.77;;;7.90;;
2912;SDS011;1466;48.778;9.166;2024-01-07T10:04:49;16.42;;;6.95;;
2912;SDS011;1466;48.778;9.166;2024-01-07T10:07:15;19.70;;;7.17;;
2912;SDS011;1466;48.778;9.166;2024-01-07T10:09:41;18.77;;;7.37;;
2912;SDS011;1466;48.778;9.166;2024-01-07T10:12:09;17.63;;;7.68;;
2912;SDS011;1466;48.778;9.166;2024-01-07T10:14:37;19.60;;;7.13;;
2912;SDS011;1466;48.778;9.166;2024-01-07T10:17:15;16.42;;;7.10;;
2912;SDS011;1466;48.778;9.166;2024-01-07T10:19:44;20.65;;;7.55;;
2912;SDS011;1466;48.778;9.166;2024-01-07T10:22:11;29.50;;;8.48;;
2912;SDS011;1466;48.778;9.166;2024-01-07T10:24:41;27.55;;;8.25;;
2912;SDS011;1466;48.778;9.166;2024-01-07T10:27:08;21.25;;;8.05;;
2912;SDS011;1466;48.778;9.166;2024-01-07T10:29:35;23.42;;;8.30;;
2912;SDS011;1466;48.778;9.166;2024-01-07T10:32:01;25.05;;;8.20;;
2912;SDS011;1466;48.778;9.166;2024-01-07T10:34:33;22.58;;;8.20;;
2912;SDS011;1466;48.778;9.166;2024-01-07T10:37:00;20.33;;;6.72;;
2912;SDS011;1466;48.778;9.166;2024-01-07T10:39:26;22.52;;;7.82;;
2912;SDS011;1466;48.778;9.166;2024-01-07T10:41:53;27.20;;;7.82;;
2912;SDS011;1466;48.778;9.166;2024-01-07T10:44:29;28.45;;;9.43;;
2912;SDS011;1466;48.778;9.166;2024-01-07T10:46:56;23.83;;;9.30;;
2912;SDS011;1466;48.778;9.166;2024-01-07T10:49:23;24.02;;;7.90;;
2912;SDS011;1466;48.778;9.166;2024-01-07T10:51:56;18.52;;;6.57;;
2912;SDS011;1466;48.778;9.166;2024-01-07T10:54:29;14.57;;;5.80;;
2912;SDS011;1466;48.778;9.166;2024-01-07T10:56:59;26.15;;;9.25;;
2912;SDS011;1466;48.778;9.166;2024-01-07T10:59:29;25.05;;;8.30;;
2912;SDS011;1466;48.778;9.166;2024-01-07T11:01:58;22.83;;;7.68;;
2912;SDS011;1466;48.778;9.166;2024-01-07T11:07:09;24.55;;;8.15;;
2912;SDS011;1466;48.778;9.166;2024-01-07T11:10:18;23.55;;;7.72;;
2912;SDS011;1466;48.778;9.166;2024-01-07T11:12:38;21.83;;;8.40;;
2912;SDS011;1466;48.778;9.166;2024-01-07T11:15:04;26.47;;;8.07;;
2912;SDS011;1466;48.778;9.166;2024-01-07T11:17:39;27.33;;;9.60;;
2912;SDS011;1466;48.778;9.166;2024-01-07T11:20:07;23.88;;;8.15;;
2912;SDS011;1466;48.778;9.166;2024-01-07T11:22:37;20.27;;;7.15;;
2912;SDS011;1466;48.778;9.166;2024-01-07T11:25:20;20.63;;;7.50;;
2912;SDS011;1466;48.778;9.166;2024-01-07T11:28:00;19.88;;;8.00;;
2912;SDS011;1466;48.778;9.166;2024-01-07T11:30:26;23.85;;;8.25;;
2912;SDS011;1466;48.778;9.166;2024-01-07T11:32:58;21.17;;;8.50;;
2912;SDS011;1466;48.778;9.166;2024-01-07T11:38:22;23.95;;;8.18;;
2912;SDS011;1466;48.778;9.166;2024-01-07T11:40:48;26.43;;;8.70;;
2912;SDS011;1466;48.778;9.166;2024-01-07T11:43:15;21.60;;;7.00;;
2912;SDS011;1466;48.778;9.166;2024-01-07T11:45:40;20.57;;;7.90;;
2912;SDS011;1466;48.778;9.166;2024-01-07T11:48:06;27.83;;;10.13;;
2912;SDS011;1466;48.778;9.166;2024-01-07T11:50:32;20.40;;;6.70;;
2912;SDS011;1466;48.778;9.166;2024-01-07T11:52:58;25.83;;;9.20;;
2912;SDS011;1466;48.778;9.166;2024-01-07T11:55:24;18.33;;;6.50;;
2912;SDS011;1466;48.778;9.166;2024-01-07T11:57:51;17.75;;;6.93;;
2912;SDS011;1466;48.778;9.166;2024-01-07T12:00:17;20.60;;;9.10;;
2912;SDS011;1466;48.778;9.166;2024-01-07T12:02:43;24.27;;;8.07;;
2912;SDS011;1466;48.778;9.166;2024-01-07T12:05:08;21.60;;;8.70;;
2912;SDS011;1466;48.778;9.166;2024-01-07T12:07:35;19.02;;;7.57;;
2912;SDS011;1466;48.778;9.166;2024-01-07T12:10:02;19.83;;;7.20;;
2912;SDS011;1466;48.778;9.166;2024-01-07T12:12:31;21.38;;;9.60;;
2912;SDS011;1466;48.778;9.166;2024-01-07T12:14:56;18.10;;;7.60;;
2912;SDS011;1466;48.778;9.166;2024-01-07T12:17:23;21.73;;;8.27;;
2912;SDS011;1466;48.778;9.166;2024-01-07T12:19:49;20.00;;;8.80;;
2912;SDS011;1466;48.778;9.166;2024-01-07T12:22:15;29.37;;;7.90;;
2912;SDS011;1466;48.778;9.166;2024-01-07T12:24:42;24.27;;;9.27;;
2912;SDS011;1466;48.778;9.166;2024-01-07T12:27:09;21.75;;;8.15;;
2912;SDS011;1466;48.778;9.166;2024-01-07T12:29:34;24.40;;;9.13;;
2912;SDS011;1466;48.778;9.166;2024-01-07T12:32:00;22.80;;;9.80;;
2912;SDS011;1466;48.778;9.166;2024-01-07T12:34:27;21.13;;;7.72;;
2912;SDS011;1466;48.778;9.166;2024-01-07T12:36:53;18.23;;;7.80;;
2912;SDS011;1466;48.778;9.166;2024-01-07T12:39:24;24.48;;;9.25;;
2912;SDS011;1466;48.778;9.166;2024-01-07T12:41:50;56.70;;;14.30;;
2912;SDS011;1466;48.778;9.166;2024-01-07T12:44:18;19.87;;;7.83;;
2912;SDS011;1466;48.778;9.166;2024-01-07T12:46:44;17.90;;;8.15;;
2912;SDS011;1466;48.778;9.166;2024-01-07T12:49:13;12.40;;;6.68;;
2912;SDS011;1466;48.778;9.166;2024-01-07T12:54:23;25.58;;;9.68;;
2912;SDS011;1466;48.778;9.166;2024-01-07T12:56:49;17.90;;;7.57;;
2912;SDS011;1466;48.778;9.166;2024-01-07T12:59:16;19.00;;;6.97;;
2912;SDS011;1466;48.778;9.166;2024-01-07T13:01:41;22.10;;;9.27;;
2912;SDS011;1466;48.778;9.166;2024-01-07T13:04:07;23.03;;;8.07;;
2912;SDS011;1466;48.778;9.166;2024-01-07T13:06:37;27.33;;;10.10;;
2912;SDS011;1466;48.778;9.166;2024-01-07T13:09:03;25.13;;;9.90;;
2912;SDS011;1466;48.778;9.166;2024-01-07T13:11:31;19.00;;;8.02;;
2912;SDS011;1466;48.778;9.166;2024-01-07T13:13:57;20.03;;;8.70;;
2912;SDS011;1466;48.778;9.166;2024-01-07T13:16:29;21.38;;;8.05;;
2912;SDS011;1466;48.778;9.166;2024-01-07T13:18:55;23.83;;;9.43;;
2912;SDS011;1466;48.778;9.166;2024-01-07T13:21:23;23.75;;;8.60;;
2912;SDS011;1466;48.778;9.166;2024-01-07T13:23:49;19.80;;;8.00;;
2912;SDS011;1466;48.778;9.166;2024-01-07T13:26:15;24.93;;;9.80;;
2912;SDS011;1466;48.778;9.166;2024-01-07T13:28:41;28.83;;;9.57;;
2912;SDS011;1466;48.778;9.166;2024-01-07T13:31:07;24.77;;;9.50;;
2912;SDS011;1466;48.778;9.166;2024-01-07T13:33:33;30.33;;;13.05;;
2912;SDS011;1466;48.778;9.166;2024-01-07T13:35:59;19.23;;;7.43;;
2912;SDS011;1466;48.778;9.166;2024-01-07T13:38:24;33.43;;;10.50;;
2912;SDS011;1466;48.778;9.166;2024-01-07T13:40:50;26.67;;;11.10;;
2912;SDS011;1466;48.778;9.166;2024-01-07T13:43:16;15.95;;;10.40;;
2912;SDS011;1466;48.778;9.166;2024-01-07T13:45:42;21.77;;;9.20;;
2912;SDS011;1466;48.778;9.166;2024-01-07T13:48:08;30.77;;;13.13;;
2912;SDS011;1466;48.778;9.166;2024-01-07T13:50:37;30.70;;;11.80;;
2912;SDS011;1466;48.778;9.166;2024-01-07T13:53:03;14.43;;;6.17;;
2912;SDS011;1466;48.778;9.166;2024-01-07T13:55:29;10.88;;;8.18;;
2912;SDS011;1466;48.778;9.166;2024-01-07T13:57:55;23.13;;;9.00;;
2912;SDS011;1466;48.778;9.166;2024-01-07T14:00:21;15.30;;;8.50;;
2912;SDS011;1466;48.778;9.166;2024-01-07T14:02:46;15.57;;;8.07;;
2912;SDS011;1466;48.778;9.166;2024-01-07T14:05:12;31.90;;;10.47;;
2912;SDS011;1466;48.778;9.166;2024-01-07T14:07:38;30.40;;;10.53;;
2912;SDS011;1466;48.778;9.166;2024-01-07T14:10:05;31.52;;;12.10;;
2912;SDS011;1466;48.778;9.166;2024-01-07T14:12:31;23.45;;;9.40;;
2912;SDS011;1466;48.778;9.166;2024-01-07T14:14:58;18.98;;;10.90;;
2912;SDS011;1466;48.778;9.166;2024-01-07T14:17:24;27.23;;;10.73;;
2912;SDS011;1466;48.778;9.166;2024-01-07T14:19:50;19.88;;;8.18;;
2912;SDS011;1466;48.778;9.166;2024-01-07T14:22:18;22.27;;;10.05;;
2912;SDS011;1466;48.778;9.166;2024-01-07T14:24:44;19.85;;;9.23;;
2912;SDS011;1466;48.778;9.166;2024-01-07T14:27:10;20.17;;;9.23;;
2912;SDS011;1466;48.778;9.166;2024-01-07T14:29:36;18.75;;;6.55;;
2912;SDS011;1466;48.778;9.166;2024-01-07T14:32:02;20.55;;;9.55;;
2912;SDS011;1466;48.778;9.166;2024-01-07T14:34:29;22.38;;;11.25;;
2912;SDS011;1466;48.778;9.166;2024-01-07T14:36:55;26.97;;;10.57;;
2912;SDS011;1466;48.778;9.166;2024-01-07T14:39:21;19.70;;;9.27;;
2912;SDS011;1466;48.778;9.166;2024-01-07T14:41:46;20.27;;;10.43;;
2912;SDS011;1466;48.778;9.166;2024-01-07T14:44:12;23.00;;;10.67;;
2912;SDS011;1466;48.778;9.166;2024-01-07T14:46:38;14.37;;;5.60;;
2912;SDS011;1466;48.778;9.166;2024-01-07T14:49:03;23.27;;;10.40;;
2912;SDS011;1466;48.778;9.166;2024-01-07T14:51:29;20.50;;;9.13;;
2912;SDS011;1466;48.778;9.166;2024-01-07T14:53:56;21.05;;;11.13;;
2912;SDS011;1466;48.778;9.166;2024-01-07T14:56:22;16.93;;;7.93;;